createdAt,value
2018-02-08T00:03:34.145Z,56.80
2018-02-08T00:08:36.781Z,56.57
2018-02-08T00:13:40.211Z,59.40
2018-02-08T00:18:42.854Z,57.13
2018-02-08T00:23:47.059Z,56.53
2018-02-08T00:28:49.778Z,53.47
2018-02-08T00:33:53.234Z,55.23
2018-02-08T00:38:56.638Z,56.73
2018-02-08T00:43:59.421Z,56.50
2018-02-08T00:49:02.044Z,53.43
2018-02-08T00:54:05.739Z,54.87
2018-02-08T00:59:08.375Z,52.17
2018-02-08T01:04:11.797Z,55.83
2018-02-08T01:09:14.488Z,54.33
2018-02-08T01:14:17.311Z,53.80
2018-02-08T01:19:19.947Z,56.73
2018-02-08T01:24:23.434Z,55.03
2018-02-08T01:29:26.160Z,51.97
2018-02-08T01:34:29.069Z,53.07
2018-02-08T01:39:31.704Z,53.37
2018-02-08T01:44:34.612Z,54.80
2018-02-08T01:49:46.251Z,56.23
2018-02-08T01:54:49.820Z,52.63
2018-02-08T01:59:52.449Z,52.23
2018-02-08T02:04:56.000Z,51.47
2018-02-08T02:09:58.640Z,49.23
2018-02-08T02:15:02.207Z,50.33
2018-02-08T02:20:05.649Z,49.87
2018-02-08T02:25:09.087Z,52.57
2018-02-08T02:30:11.755Z,46.00
2018-02-08T02:35:14.645Z,44.30
2018-02-08T02:40:18.052Z,50.50
2018-02-08T02:45:21.800Z,51.23
2018-02-08T02:50:24.404Z,50.67
2018-02-08T02:55:27.500Z,50.73
2018-02-08T03:00:30.134Z,50.67
2018-02-08T03:05:33.623Z,50.03
2018-02-08T03:10:36.261Z,53.47
2018-02-08T03:15:39.639Z,52.90
2018-02-08T03:20:42.267Z,50.33
2018-02-08T03:25:45.899Z,54.47
2018-02-08T03:30:48.648Z,53.47
2018-02-08T03:35:52.595Z,53.30
2018-02-08T03:40:55.246Z,54.23
2018-02-08T03:45:58.695Z,55.43
2018-02-08T03:51:02.075Z,56.57
2018-02-08T03:56:05.444Z,54.67
2018-02-08T04:01:08.079Z,55.63
2018-02-08T04:06:11.632Z,54.23
2018-02-08T04:11:15.005Z,55.37
2018-02-08T04:16:17.709Z,59.83
2018-02-08T04:21:20.365Z,58.03
2018-02-08T04:26:23.798Z,57.43
2018-02-08T04:31:26.433Z,57.40
2018-02-08T04:36:30.012Z,58.93
2018-02-08T04:41:44.496Z,54.70
2018-02-08T04:46:59.422Z,59.87
2018-02-08T04:52:02.061Z,62.17
2018-02-08T04:57:05.696Z,58.87
2018-02-08T05:02:12.039Z,56.50
2018-02-08T05:07:15.032Z,54.53
2018-02-08T05:12:17.678Z,56.13
2018-02-08T05:17:21.485Z,60.17
2018-02-08T05:22:24.112Z,59.03
2018-02-08T05:27:27.696Z,60.70
2018-02-08T05:32:30.332Z,57.03
2018-02-08T05:37:33.977Z,58.07
2018-02-08T05:42:36.565Z,55.40
2018-02-08T05:47:39.538Z,58.20
2018-02-08T05:52:42.922Z,56.33
2018-02-08T05:57:46.096Z,55.57
2018-02-08T06:02:48.781Z,56.97
2018-02-08T06:07:51.654Z,60.23
2018-02-08T06:12:54.283Z,56.20
2018-02-08T06:17:58.618Z,60.67
2018-02-08T06:23:02.023Z,57.97
2018-02-08T06:28:05.567Z,57.50
2018-02-08T06:33:08.214Z,60.60
2018-02-08T06:38:11.798Z,59.23
2018-02-08T06:43:14.441Z,57.37
2018-02-08T06:48:18.027Z,55.00
2018-02-08T06:53:20.620Z,60.97
2018-02-08T06:58:23.273Z,58.80
2018-02-08T07:03:25.894Z,57.93
2018-02-08T07:08:28.655Z,59.00
2018-02-08T07:13:31.301Z,57.00
2018-02-08T07:18:34.907Z,55.80
2018-02-08T07:23:38.311Z,56.63
2018-02-08T07:28:41.799Z,56.00
2018-02-08T07:33:44.408Z,74.30
2018-02-08T07:38:47.409Z,58.03
2018-02-08T07:43:50.022Z,58.30
2018-02-08T07:48:53.677Z,58.93
2018-02-08T07:53:56.302Z,60.67
2018-02-08T07:58:59.180Z,55.87
2018-02-08T08:04:02.576Z,57.50
2018-02-08T08:09:05.249Z,53.10
2018-02-08T08:14:07.959Z,54.87
2018-02-08T08:19:11.006Z,55.93
2018-02-08T08:24:14.394Z,53.47
2018-02-08T08:29:17.763Z,54.47
2018-02-08T08:34:20.393Z,54.70
2018-02-08T08:39:23.131Z,49.47
2018-02-08T08:44:25.775Z,53.33
2018-02-08T08:49:29.037Z,52.97
2018-02-08T08:54:32.465Z,49.77
2018-02-08T08:59:36.223Z,51.93
2018-02-08T09:04:38.854Z,52.73
2018-02-08T09:09:42.417Z,50.07
2018-02-08T09:14:45.008Z,51.73
2018-02-08T09:19:48.606Z,49.17
2018-02-08T09:24:51.239Z,53.63
2018-02-08T09:29:54.334Z,53.93
2018-02-08T09:34:57.717Z,53.23
2018-02-08T09:40:01.111Z,50.40
2018-02-08T09:45:03.738Z,52.83
2018-02-08T09:50:07.111Z,49.33
2018-02-08T09:55:09.753Z,49.60
2018-02-08T10:00:13.227Z,51.27
2018-02-08T10:05:15.863Z,50.90
2018-02-08T10:10:19.431Z,51.60
2018-02-08T10:15:22.068Z,52.67
2018-02-08T10:20:24.703Z,52.00
2018-02-08T10:25:28.110Z,54.07
2018-02-08T10:30:31.122Z,53.83
2018-02-08T10:35:35.245Z,51.23
2018-02-08T10:40:38.014Z,53.97
2018-02-08T10:45:40.635Z,53.47
2018-02-08T10:50:43.386Z,52.20
2018-02-08T10:55:46.017Z,53.43
2018-02-08T11:00:48.883Z,53.07
2018-02-08T11:05:52.261Z,55.37
2018-02-08T11:10:55.027Z,52.97
2018-02-08T11:15:57.668Z,53.57
2018-02-08T11:21:01.143Z,53.10
2018-02-08T11:26:03.765Z,53.00
2018-02-08T11:31:07.246Z,53.50
2018-02-08T11:36:09.888Z,54.60
2018-02-08T11:41:12.662Z,50.90
2018-02-08T11:46:15.300Z,53.10
2018-02-08T11:51:18.077Z,49.40
2018-02-08T11:56:20.735Z,53.00
2018-02-08T12:01:23.540Z,46.37
2018-02-08T12:06:26.138Z,47.80
2018-02-08T12:11:29.436Z,47.70
2018-02-08T12:16:32.845Z,48.20
2018-02-08T12:21:36.207Z,46.57
2018-02-08T12:26:38.853Z,47.57
2018-02-08T12:31:42.713Z,44.03
2018-02-08T12:36:45.378Z,44.80
2018-02-08T12:41:48.254Z,45.10
2018-02-08T12:46:50.903Z,46.27
2018-02-08T12:51:54.544Z,48.37
2018-02-08T12:56:57.175Z,44.43
2018-02-08T13:01:59.851Z,59.97
2018-02-08T13:07:02.487Z,43.03
2018-02-08T13:12:05.147Z,42.10
2018-02-08T13:17:07.776Z,41.40
2018-02-08T13:22:10.757Z,39.53
2018-02-08T13:27:13.390Z,42.10
2018-02-08T13:32:16.988Z,43.50
2018-02-08T13:37:19.660Z,42.43
2018-02-08T13:42:22.763Z,38.83
2018-02-08T13:47:31.747Z,41.13
2018-02-08T13:52:40.754Z,44.77
2018-02-08T14:03:24.771Z,45.23
2018-02-08T14:08:28.586Z,47.53
2018-02-08T14:13:31.957Z,47.43
2018-02-08T14:18:34.926Z,49.70
2018-02-08T14:23:37.616Z,49.97
2018-02-08T14:28:41.968Z,49.40
2018-02-08T14:33:44.658Z,50.50
2018-02-08T14:38:48.207Z,52.70
2018-02-08T14:43:50.816Z,49.73
2018-02-08T14:48:54.175Z,46.00
2018-02-08T14:53:57.585Z,45.90
2018-02-08T14:59:00.350Z,48.53
2018-02-08T15:04:02.999Z,46.80
2018-02-08T15:09:06.836Z,46.80
2018-02-08T15:14:10.229Z,46.97
2018-02-08T15:19:13.081Z,47.83
2018-02-08T15:24:15.705Z,46.33
2018-02-08T15:29:19.165Z,49.23
2018-02-08T15:34:22.625Z,48.87
2018-02-08T15:39:25.850Z,46.97
2018-02-08T15:44:28.478Z,46.00
2018-02-08T15:49:32.031Z,47.50
2018-02-08T15:54:34.652Z,47.17
2018-02-08T15:59:38.251Z,46.30
2018-02-08T16:04:40.879Z,48.23
2018-02-08T16:09:44.409Z,48.53
2018-02-08T16:14:47.022Z,47.30
2018-02-08T16:19:50.395Z,47.77
2018-02-08T16:24:52.998Z,47.60
2018-02-08T16:29:56.515Z,48.60
2018-02-08T16:34:59.341Z,51.07
2018-02-08T16:40:02.234Z,49.23
2018-02-08T16:45:04.981Z,49.93
2018-02-08T16:50:07.887Z,51.17
2018-02-08T16:55:10.506Z,49.70
2018-02-08T17:00:13.960Z,48.67
2018-02-08T17:05:16.560Z,52.73
2018-02-08T17:10:19.943Z,50.40
2018-02-08T17:15:22.844Z,53.17
2018-02-08T17:20:25.856Z,53.07
2018-02-08T17:25:28.728Z,49.57
2018-02-08T17:30:34.043Z,51.90
2018-02-08T17:35:36.855Z,54.33
2018-02-08T17:40:40.557Z,54.33
2018-02-08T17:45:43.435Z,53.33
2018-02-08T17:50:48.152Z,52.70
2018-02-08T17:55:50.770Z,50.93
2018-02-08T18:00:54.346Z,51.50
2018-02-08T18:05:56.969Z,52.17
2018-02-08T18:10:59.949Z,52.93
2018-02-08T18:16:02.594Z,54.50
2018-02-08T18:21:05.679Z,55.20
2018-02-08T18:26:08.319Z,56.13
2018-02-08T18:31:11.875Z,57.07
2018-02-08T18:36:14.557Z,57.73
2018-02-08T18:41:17.825Z,57.37
2018-02-08T18:46:21.289Z,56.77
2018-02-08T18:51:24.165Z,55.87
2018-02-08T18:56:26.836Z,55.90
2018-02-08T19:01:29.613Z,58.10
2018-02-08T19:06:32.233Z,54.40
2018-02-08T19:11:35.819Z,54.40
2018-02-08T19:16:38.449Z,55.23
2018-02-08T19:21:41.740Z,52.33
2018-02-08T19:26:44.442Z,55.43
2018-02-08T19:31:47.721Z,55.30
2018-02-08T19:36:51.127Z,52.00
2018-02-08T19:41:55.051Z,52.27
2018-02-08T19:46:57.988Z,51.37
2018-02-08T19:52:01.709Z,48.20
2018-02-08T19:57:04.380Z,48.10
2018-02-08T20:02:08.629Z,48.33
2018-02-08T20:07:11.348Z,47.40
2018-02-08T20:12:14.634Z,47.70
2018-02-08T20:17:17.363Z,50.70
2018-02-08T20:22:20.265Z,52.07
2018-02-08T20:27:23.902Z,50.50
2018-02-08T20:32:26.789Z,61.27
2018-02-08T20:37:30.320Z,65.23
2018-02-08T20:42:49.835Z,62.23
2018-02-08T20:47:52.622Z,59.47
2018-02-08T20:52:56.070Z,58.67
2018-02-08T20:57:58.836Z,58.27
2018-02-08T21:03:02.014Z,55.60
2018-02-08T21:08:04.842Z,58.90
2018-02-08T21:13:08.496Z,59.57
2018-02-08T21:18:11.280Z,57.37
2018-02-08T21:23:14.228Z,58.67
2018-02-08T21:28:16.981Z,59.77
2018-02-08T21:33:20.295Z,56.33
2018-02-08T21:38:23.818Z,57.13
2018-02-08T21:43:27.424Z,56.03
2018-02-08T21:48:30.825Z,57.63
2018-02-08T21:53:34.365Z,51.13
2018-02-08T21:58:37.035Z,49.87
2018-02-08T22:03:39.809Z,50.93
2018-02-08T22:08:42.426Z,47.70
2018-02-08T22:13:45.813Z,51.27
2018-02-08T22:18:49.525Z,50.67
2018-02-08T22:23:52.616Z,50.70
2018-02-08T22:28:55.425Z,52.03
2018-02-08T22:33:58.636Z,54.37
2018-02-08T22:39:01.341Z,53.90
2018-02-08T22:44:03.989Z,52.63
2018-02-08T22:49:07.009Z,52.37
2018-02-08T22:54:10.154Z,52.93
2018-02-08T22:59:12.895Z,55.23
2018-02-08T23:04:16.488Z,55.63
2018-02-08T23:09:19.082Z,56.63
2018-02-08T23:14:22.041Z,57.37
2018-02-08T23:19:24.669Z,59.43
2018-02-08T23:24:28.112Z,58.70
2018-02-08T23:29:30.750Z,60.90
2018-02-08T23:34:33.476Z,61.77
2018-02-08T23:39:36.108Z,63.07
2018-02-08T23:44:39.283Z,63.47
2018-02-08T23:49:41.895Z,63.80
2018-02-08T23:54:45.602Z,64.47
2018-02-08T23:59:48.214Z,64.47
